Time;durP1;ratioP1;P1;durP2;ratioP2;P2;SDS_P1;SDS_P2;PMS_P1;PMS_P2;Temp;Humidity;BMP_temperature;BMP_pressure;BME280_temperature;BME280_humidity;BME280_pressure;Samples;Min_cycle;Max_cycle;Signal;HPM_P1;HPM_P2
2022/08/03 00:01:35;;;;;;;5.85;3.92;;;20.30;57.80;;;;;;5029587;28;20470;-75
2022/08/03 00:04:00;;;;;;;7.22;4.10;;;20.30;58.10;;;;;;5030712;28;20490;-75
2022/08/03 00:06:26;;;;;;;7.40;4.65;;;20.10;58.50;;;;;;5030511;28;20419;-75
2022/08/03 00:08:51;;;;;;;5.93;4.10;;;20.10;58.90;;;;;;5030360;28;20439;-75
2022/08/03 00:11:17;;;;;;;7.80;4.30;;;20.00;59.10;;;;;;5030441;28;20379;-75
2022/08/03 00:13:43;;;;;;;7.05;4.22;;;20.10;59.40;;;;;;5030481;28;20872;-75
2022/08/03 00:16:09;;;;;;;8.00;3.60;;;20.00;59.60;;;;;;5030828;28;20417;-74
2022/08/03 00:18:35;;;;;;;8.43;4.20;;;20.00;59.90;;;;;;5033029;28;20437;-75
2022/08/03 00:21:02;;;;;;;5.65;3.90;;;20.00;60.20;;;;;;5033124;28;20391;-75
2022/08/03 00:23:28;;;;;;;9.95;4.35;;;20.00;60.40;;;;;;5033463;28;20416;-75
2022/08/03 00:25:55;;;;;;;5.03;3.60;;;20.00;60.20;;;;;;5034898;28;20401;-76
2022/08/03 00:28:20;;;;;;;7.53;3.67;;;19.90;60.30;;;;;;5034121;28;20415;-75
2022/08/03 00:30:46;;;;;;;7.33;3.90;;;19.90;60.20;;;;;;5034250;28;20982;-76
2022/08/03 00:33:11;;;;;;;7.95;3.95;;;19.90;60.00;;;;;;5034077;28;20868;-75
2022/08/03 00:35:37;;;;;;;8.20;3.70;;;19.90;60.10;;;;;;5034568;28;20445;-76
2022/08/03 00:38:03;;;;;;;5.70;4.00;;;19.90;59.40;;;;;;5034166;28;20395;-76
2022/08/03 00:40:28;;;;;;;8.25;4.00;;;19.90;59.20;;;;;;5034108;28;20399;-76
2022/08/03 00:42:57;;;;;;;10.30;3.83;;;20.00;58.80;;;;;;5033778;28;20741;-76
2022/08/03 00:45:25;;;;;;;8.27;3.63;;;20.00;58.70;;;;;;5034183;28;20457;-76
2022/08/03 00:47:52;;;;;;;6.43;4.40;;;20.00;57.50;;;;;;5033743;28;20399;-76
2022/08/03 00:50:18;;;;;;;6.72;3.95;;;20.10;57.40;;;;;;5034106;28;20779;-76
2022/08/03 00:52:45;;;;;;;10.27;4.20;;;20.10;56.90;;;;;;5033758;28;20378;-76
2022/08/03 00:55:11;;;;;;;7.07;4.30;;;20.10;57.20;;;;;;5034319;28;20378;-76
2022/08/03 00:57:37;;;;;;;7.07;3.97;;;20.10;57.30;;;;;;5033599;28;20391;-75
2022/08/03 01:00:06;;;;;;;8.32;4.25;;;20.10;57.10;;;;;;5033964;28;20449;-76
2022/08/03 01:02:32;;;;;;;9.13;4.60;;;20.10;57.60;;;;;;5032238;28;20387;-76
2022/08/03 01:04:57;;;;;;;8.32;4.47;;;20.00;58.20;;;;;;5033585;28;20387;-75
2022/08/03 01:07:29;;;;;;;6.63;4.80;;;20.00;58.40;;;;;;5033425;28;20968;-75
2022/08/03 01:10:01;;;;;;;6.95;5.07;;;20.00;58.50;;;;;;5033661;28;20371;-75
2022/08/03 01:13:13;;;;;;;7.60;4.68;;;19.90;59.30;;;;;;5033400;28;20787;-76
2022/08/03 01:16:06;;;;;;;7.82;4.45;;;19.90;59.10;;;;;;4972137;28;20389;-74
2022/08/03 01:18:44;;;;;;;5.45;4.75;;;19.90;59.40;;;;;;5032008;28;20702;-75
2022/08/03 01:21:17;;;;;;;5.10;4.30;;;19.90;60.10;;;;;;5033035;28;20748;-74
2022/08/03 01:23:42;;;;;;;5.43;4.70;;;19.90;59.40;;;;;;5033218;28;20933;-76
2022/08/03 01:26:13;;;;;;;8.63;4.90;;;19.80;59.90;;;;;;5033399;28;20391;-76
2022/08/03 01:29:06;;;;;;;7.93;4.72;;;19.90;59.00;;;;;;5032930;28;20426;-75
2022/08/03 01:31:41;;;;;;;5.90;4.45;;;19.90;58.90;;;;;;5032847;28;20380;-75
2022/08/03 01:34:13;;;;;;;7.00;4.32;;;19.80;59.20;;;;;;5033046;28;20415;-75
2022/08/03 01:36:47;;;;;;;5.60;4.40;;;19.80;59.60;;;;;;5032296;28;20441;-75
2022/08/03 01:39:14;;;;;;;7.35;4.45;;;19.70;59.70;;;;;;5032884;28;20399;-75
2022/08/03 01:41:46;;;;;;;6.82;4.68;;;19.80;59.40;;;;;;5032556;28;20524;-75
2022/08/03 01:44:13;;;;;;;7.50;4.63;;;19.80;58.40;;;;;;5032948;28;20849;-75
2022/08/03 01:46:40;;;;;;;6.13;4.70;;;19.80;58.30;;;;;;5032684;28;20407;-75
2022/08/03 01:49:09;;;;;;;9.10;4.97;;;19.80;58.20;;;;;;5033069;28;20433;-75
2022/08/03 01:51:38;;;;;;;7.85;4.85;;;19.80;58.10;;;;;;5032466;28;20387;-75
2022/08/03 01:54:04;;;;;;;8.50;5.10;;;19.90;57.80;;;;;;5032855;28;20437;-75
2022/08/03 01:56:31;;;;;;;6.05;5.00;;;19.90;57.50;;;;;;5032702;28;20463;-75
2022/08/03 01:58:59;;;;;;;10.25;5.30;;;19.90;57.00;;;;;;5053442;23;20966;-76
2022/08/03 02:01:27;;;;;;;11.13;5.20;;;19.90;57.90;;;;;;5052929;28;20469;-75
2022/08/03 02:03:55;;;;;;;9.10;5.13;;;19.90;57.40;;;;;;5053028;28;20377;-76
2022/08/03 02:06:22;;;;;;;7.80;4.50;;;19.90;56.60;;;;;;5053044;28;20396;-76
2022/08/03 02:08:49;;;;;;;9.50;4.80;;;19.90;56.20;;;;;;5052775;28;20390;-74
2022/08/03 02:11:15;;;;;;;5.53;4.23;;;20.00;55.80;;;;;;5052705;28;20377;-75
2022/08/03 02:13:42;;;;;;;13.10;5.17;;;19.90;56.10;;;;;;5052998;28;20373;-75
2022/08/03 02:16:09;;;;;;;6.53;4.65;;;19.90;56.40;;;;;;5053607;28;20481;-75
2022/08/03 02:18:38;;;;;;;7.70;4.82;;;19.90;56.50;;;;;;5054435;28;20892;-75
2022/08/03 02:21:06;;;;;;;8.80;5.30;;;19.80;57.10;;;;;;5054304;28;20389;-75
2022/08/03 02:23:31;;;;;;;8.20;4.63;;;19.80;57.20;;;;;;5052556;28;20385;-75
2022/08/03 02:26:01;;;;;;;7.60;4.97;;;19.80;56.80;;;;;;5052583;28;20404;-76
2022/08/03 02:28:36;;;;;;;8.55;4.45;;;19.80;57.50;;;;;;5052300;28;20898;-76
2022/08/03 02:31:10;;;;;;;8.57;5.20;;;19.70;57.80;;;;;;5034409;28;20398;-75
2022/08/03 02:33:41;;;;;;;5.20;4.45;;;19.60;58.80;;;;;;5052356;28;20389;-75
2022/08/03 02:36:08;;;;;;;10.43;5.30;;;19.60;58.90;;;;;;5052415;28;20460;-75
2022/08/03 02:38:39;;;;;;;9.90;4.97;;;19.60;58.80;;;;;;5052108;28;20389;-74
2022/08/03 02:41:11;;;;;;;5.90;5.10;;;19.70;58.90;;;;;;5034122;28;20385;-75
2022/08/03 02:43:38;;;;;;;9.85;5.40;;;19.60;59.20;;;;;;5034176;28;20386;-75
2022/08/03 02:46:06;;;;;;;9.45;4.90;;;19.60;59.00;;;;;;5052051;28;20381;-75
2022/08/03 02:48:34;;;;;;;9.88;5.20;;;19.60;58.80;;;;;;5050830;28;20900;-74
2022/08/03 02:51:02;;;;;;;8.68;5.20;;;19.60;58.90;;;;;;5051598;28;20393;-76
2022/08/03 02:53:30;;;;;;;6.90;5.20;;;19.60;59.10;;;;;;5051555;28;20378;-76
2022/08/03 02:55:57;;;;;;;9.13;5.47;;;19.60;59.40;;;;;;5051633;28;20382;-74
2022/08/03 02:58:24;;;;;;;6.40;4.90;;;19.50;59.30;;;;;;5051373;28;20389;-74
2022/08/03 03:00:51;;;;;;;6.60;4.90;;;19.50;59.60;;;;;;5033519;28;21020;-74
2022/08/03 03:03:18;;;;;;;6.20;4.95;;;19.50;59.20;;;;;;5033860;28;20412;-74
2022/08/03 03:05:45;;;;;;;12.90;5.32;;;19.60;59.00;;;;;;5066628;28;20374;-74
2022/08/03 03:08:19;;;;;;;7.15;5.43;;;19.70;58.00;;;;;;5070589;28;20401;-75
2022/08/03 03:10:45;;;;;;;9.43;5.32;;;19.60;59.20;;;;;;5066601;28;20385;-75
2022/08/03 03:13:13;;;;;;;8.77;5.47;;;19.50;60.70;;;;;;5051757;28;20417;-75
2022/08/03 03:15:42;;;;;;;9.10;5.43;;;19.40;61.30;;;;;;5033343;28;20440;-75
2022/08/03 03:18:09;;;;;;;8.40;5.53;;;19.30;62.00;;;;;;5033680;28;20396;-75
2022/08/03 03:20:37;;;;;;;6.68;5.38;;;19.30;62.30;;;;;;5050893;28;20377;-74
2022/08/03 03:23:04;;;;;;;9.18;5.80;;;19.30;62.90;;;;;;5051031;28;20920;-76
2022/08/03 03:25:31;;;;;;;11.23;5.70;;;19.30;63.00;;;;;;5051256;28;20422;-74
2022/08/03 03:27:58;;;;;;;10.65;5.72;;;19.20;63.30;;;;;;5051002;28;20401;-76
2022/08/03 03:30:25;;;;;;;8.70;5.70;;;19.30;63.40;;;;;;5050937;28;20405;-76
2022/08/03 03:32:51;;;;;;;9.82;6.10;;;19.30;62.80;;;;;;5032757;28;20385;-76
2022/08/03 03:35:17;;;;;;;13.23;6.40;;;19.30;63.10;;;;;;5051328;28;20992;-76
2022/08/03 03:37:42;;;;;;;7.53;5.32;;;19.30;62.20;;;;;;5050823;28;20431;-76
2022/08/03 03:40:08;;;;;;;7.75;5.72;;;19.30;62.80;;;;;;5050960;28;20377;-76
2022/08/03 03:42:34;;;;;;;8.35;5.50;;;19.20;62.90;;;;;;5050764;28;20389;-75
2022/08/03 03:45:07;;;;;;;8.45;5.80;;;19.20;63.40;;;;;;5033135;28;20480;-77
2022/08/03 03:47:34;;;;;;;9.18;5.95;;;19.20;63.20;;;;;;5052328;28;20409;-76
2022/08/03 03:50:02;;;;;;;12.00;6.43;;;19.20;63.40;;;;;;5051139;28;20468;-75
2022/08/03 03:52:28;;;;;;;9.40;5.10;;;19.20;63.70;;;;;;5032618;28;20397;-75
2022/08/03 03:54:53;;;;;;;9.43;5.70;;;19.20;62.90;;;;;;5050837;28;20496;-75
2022/08/03 03:57:19;;;;;;;6.37;5.10;;;19.20;61.80;;;;;;5053337;28;20386;-75
2022/08/03 03:59:45;;;;;;;7.70;5.47;;;19.20;62.50;;;;;;5055794;28;20896;-75
2022/08/03 04:02:11;;;;;;;8.20;5.10;;;19.20;63.00;;;;;;5051532;28;20417;-75
2022/08/03 04:13:01;;;;;;;9.48;5.30;;;19.30;61.80;;;;;;5050436;28;20940;-75
2022/08/03 04:15:27;;;;;;;8.35;4.70;;;19.20;62.20;;;;;;5050632;28;20868;-76
2022/08/03 04:17:56;;;;;;;6.50;5.53;;;19.30;62.50;;;;;;5050344;28;20460;-75
2022/08/03 04:20:22;;;;;;;7.82;5.53;;;19.30;62.50;;;;;;5050400;28;20396;-75
2022/08/03 04:22:51;;;;;;;7.13;5.55;;;19.30;62.50;;;;;;5050170;28;20390;-74
2022/08/03 04:25:19;;;;;;;10.95;5.60;;;19.30;61.30;;;;;;5050412;28;20396;-76
2022/08/03 04:27:48;;;;;;;8.70;5.50;;;19.30;61.20;;;;;;5032373;28;20897;-75
2022/08/03 04:30:14;;;;;;;9.57;5.30;;;19.30;61.00;;;;;;5050374;28;20760;-74
2022/08/03 04:32:42;;;;;;;8.40;5.65;;;19.40;60.60;;;;;;5049684;28;20784;-75
2022/08/03 04:35:08;;;;;;;9.37;5.80;;;19.40;60.50;;;;;;5050341;28;20381;-75
2022/08/03 04:37:48;;;;;;;9.80;6.00;;;19.50;60.40;;;;;;5050055;28;20389;-75
2022/08/03 04:40:29;;;;;;;9.10;6.03;;;19.50;60.40;;;;;;5068257;28;20377;-75
2022/08/03 04:42:55;;;;;;;13.85;6.00;;;19.50;60.20;;;;;;5053896;28;20393;-75
2022/08/03 04:45:23;;;;;;;6.38;4.82;;;19.50;59.10;;;;;;5066903;28;20381;-75
2022/08/03 04:47:49;;;;;;;8.70;5.87;;;19.60;58.40;;;;;;5050497;28;20874;-75
2022/08/03 04:50:16;;;;;;;11.73;6.00;;;19.70;58.20;;;;;;5050356;28;20473;-74
2022/08/03 04:52:41;;;;;;;11.50;6.70;;;19.70;57.60;;;;;;5050355;28;20417;-74
2022/08/03 04:55:07;;;;;;;7.40;5.40;;;19.80;57.30;;;;;;5050529;28;20791;-74
2022/08/03 04:57:33;;;;;;;8.10;5.83;;;19.80;57.30;;;;;;5032275;28;20739;-75
2022/08/03 04:59:59;;;;;;;6.47;5.20;;;19.80;56.60;;;;;;5032315;28;20420;-75
2022/08/03 05:02:24;;;;;;;8.10;5.57;;;19.90;56.00;;;;;;5050041;28;20397;-75
2022/08/03 05:04:51;;;;;;;9.90;6.05;;;19.90;55.40;;;;;;5050117;28;20394;-74
2022/08/03 05:07:17;;;;;;;17.30;6.20;;;20.00;54.50;;;;;;5050519;28;20898;-74
2022/08/03 05:09:44;;;;;;;15.38;6.95;;;20.00;54.60;;;;;;5049814;28;20390;-75
2022/08/03 05:12:10;;;;;;;13.93;6.95;;;20.10;54.70;;;;;;5053112;28;20492;-75
2022/08/03 05:14:37;;;;;;;13.67;6.40;;;20.10;54.50;;;;;;5054004;28;20714;-76
2022/08/03 05:17:07;;;;;;;8.35;6.10;;;20.10;54.10;;;;;;5053175;28;20746;-76
2022/08/03 05:19:33;;;;;;;12.13;6.18;;;20.30;53.40;;;;;;5053249;28;20796;-76
2022/08/03 05:21:59;;;;;;;9.20;5.90;;;20.40;52.60;;;;;;5035308;28;20400;-75
2022/08/03 05:24:25;;;;;;;7.65;6.05;;;20.40;51.90;;;;;;5053455;28;20901;-75
2022/08/03 05:26:50;;;;;;;9.60;6.80;;;20.60;51.20;;;;;;5047882;28;20396;-75
2022/08/03 05:29:16;;;;;;;11.90;6.27;;;20.60;51.00;;;;;;5033586;28;20955;-74
2022/08/03 05:31:41;;;;;;;9.57;6.25;;;20.70;50.40;;;;;;5045509;28;20476;-75
2022/08/03 05:34:07;;;;;;;11.93;5.90;;;20.80;49.90;;;;;;5043296;28;20884;-76
2022/08/03 05:36:32;;;;;;;7.93;6.00;;;20.80;49.40;;;;;;5035301;28;20395;-74
2022/08/03 05:38:58;;;;;;;9.67;6.40;;;20.90;49.10;;;;;;5052178;28;20390;-75
2022/08/03 05:41:24;;;;;;;9.83;6.20;;;20.90;49.50;;;;;;5015279;28;20391;-75
2022/08/03 05:43:52;;;;;;;7.70;6.30;;;20.90;49.30;;;;;;5042778;28;20490;-76
2022/08/03 05:46:19;;;;;;;10.23;6.50;;;20.90;49.70;;;;;;5033758;28;20777;-77
2022/08/03 05:48:45;;;;;;;12.10;6.50;;;21.10;48.50;;;;;;5033294;28;20406;-75
2022/08/03 05:51:11;;;;;;;6.40;5.70;;;21.20;47.60;;;;;;5033427;28;20395;-75
2022/08/03 05:53:37;;;;;;;13.30;6.90;;;21.30;47.40;;;;;;5043415;28;20413;-75
2022/08/03 05:56:03;;;;;;;9.45;6.40;;;21.30;47.00;;;;;;5044475;28;20398;-75
2022/08/03 05:58:29;;;;;;;11.77;6.47;;;21.30;46.20;;;;;;5052805;28;20402;-75
2022/08/03 06:00:55;;;;;;;11.10;6.13;;;21.40;45.30;;;;;;5053268;28;20390;-76
2022/08/03 06:03:20;;;;;;;9.43;5.90;;;21.50;45.20;;;;;;5018642;28;20926;-75
2022/08/03 06:05:46;;;;;;;8.95;6.70;;;21.60;44.70;;;;;;5038412;28;20459;-75
2022/08/03 06:08:12;;;;;;;13.77;6.97;;;21.60;44.30;;;;;;5055819;28;20496;-73
2022/08/03 06:10:37;;;;;;;13.47;7.30;;;21.70;43.90;;;;;;5057079;28;20423;-74
2022/08/03 06:13:03;;;;;;;16.10;6.95;;;21.80;43.20;;;;;;5051209;28;20379;-74
2022/08/03 06:15:32;;;;;;;10.57;6.18;;;21.80;43.50;;;;;;5031917;28;20394;-76
2022/08/03 06:17:58;;;;;;;11.20;6.78;;;22.00;43.00;;;;;;5032503;28;20420;-75
2022/08/03 06:20:24;;;;;;;15.15;6.95;;;22.10;42.70;;;;;;5028677;28;20413;-76
2022/08/03 06:22:50;;;;;;;15.00;7.20;;;22.10;42.40;;;;;;5032484;28;20383;-77
2022/08/03 06:25:16;;;;;;;14.00;6.80;;;22.20;42.00;;;;;;5033755;28;20498;-73
2022/08/03 06:27:42;;;;;;;10.38;7.07;;;22.20;41.20;;;;;;5033034;28;20411;-74
2022/08/03 06:30:10;;;;;;;11.30;6.80;;;22.30;40.50;;;;;;5032544;28;20860;-75
2022/08/03 06:32:39;;;;;;;13.02;6.80;;;22.40;40.10;;;;;;5042375;28;20408;-75
2022/08/03 06:35:07;;;;;;;11.52;6.65;;;22.50;39.50;;;;;;5044538;28;20445;-76
2022/08/03 06:37:44;;;;;;;14.85;6.00;;;22.70;38.80;;;;;;5051584;28;20405;-77
2022/08/03 06:40:28;;;;;;;12.05;6.60;;;22.80;38.70;;;;;;5039031;28;20399;-77
2022/08/03 06:42:58;;;;;;;11.25;6.05;;;22.90;37.90;;;;;;5037298;28;20562;-77
2022/08/03 06:45:24;;;;;;;12.77;6.30;;;23.00;37.90;;;;;;5039738;28;20402;-76
2022/08/03 06:48:05;;;;;;;13.77;7.13;;;23.10;37.50;;;;;;5075753;28;20407;-77
2022/08/03 06:50:31;;;;;;;19.05;10.77;;;23.10;37.30;;;;;;5041088;28;20474;-76
2022/08/03 06:52:57;;;;;;;13.05;8.57;;;23.20;36.90;;;;;;5051092;28;20417;-76
2022/08/03 06:55:23;;;;;;;14.20;6.30;;;23.30;37.30;;;;;;5053822;28;20389;-76
2022/08/03 06:57:48;;;;;;;9.73;7.20;;;23.40;36.60;;;;;;5058250;28;20385;-77
2022/08/03 07:00:14;;;;;;;13.73;7.50;;;23.50;36.20;;;;;;5057903;28;20427;-77
2022/08/03 07:02:40;;;;;;;14.50;7.07;;;23.70;34.80;;;;;;5059038;28;20405;-77
2022/08/03 07:05:07;;;;;;;13.40;6.70;;;23.70;34.80;;;;;;5047996;28;20503;-77
2022/08/03 07:07:32;;;;;;;10.65;6.30;;;23.80;34.90;;;;;;5038214;28;20639;-76
2022/08/03 07:09:58;;;;;;;12.90;6.72;;;23.80;34.10;;;;;;5033702;28;20422;-77
2022/08/03 07:12:25;;;;;;;11.50;6.60;;;24.00;33.90;;;;;;5055752;28;20392;-77
2022/08/03 07:14:51;;;;;;;11.45;6.20;;;24.10;33.30;;;;;;5051864;28;20389;-76
2022/08/03 07:17:16;;;;;;;15.77;7.75;;;24.20;33.20;;;;;;5044978;28;20405;-77
2022/08/03 07:19:42;;;;;;;13.00;6.50;;;24.30;32.80;;;;;;5052249;28;20408;-77
2022/08/03 07:22:08;;;;;;;10.15;6.50;;;24.30;32.90;;;;;;5051256;28;20397;-77
2022/08/03 07:24:33;;;;;;;11.18;6.00;;;24.40;31.90;;;;;;5051143;28;20750;-76
2022/08/03 07:26:59;;;;;;;10.80;5.90;;;24.50;32.00;;;;;;5052567;28;20402;-76
2022/08/03 07:29:25;;;;;;;13.50;6.30;;;24.60;31.70;;;;;;5051580;28;20718;-77
2022/08/03 07:31:50;;;;;;;13.63;5.90;;;24.80;30.70;;;;;;5050231;28;20810;-76
2022/08/03 07:34:16;;;;;;;9.13;6.00;;;24.90;30.10;;;;;;5029600;28;20395;-76
2022/08/03 07:36:41;;;;;;;12.00;5.90;;;25.00;29.50;;;;;;5031018;28;20459;-76
2022/08/03 07:39:07;;;;;;;10.75;5.30;;;25.00;28.60;;;;;;5042428;28;20425;-76
2022/08/03 07:41:32;;;;;;;12.43;5.40;;;25.00;28.90;;;;;;5059023;28;20393;-77
2022/08/03 07:43:58;;;;;;;10.65;5.97;;;25.00;28.80;;;;;;5055938;28;20401;-77
2022/08/03 07:46:24;;;;;;;12.43;6.07;;;25.10;28.30;;;;;;5074369;28;20416;-77
2022/08/03 07:48:49;;;;;;;16.73;6.32;;;25.20;28.00;;;;;;5064251;28;20431;-77
2022/08/03 07:51:15;;;;;;;8.97;6.07;;;25.30;28.30;;;;;;5058327;28;20546;-77
2022/08/03 07:53:40;;;;;;;14.05;6.72;;;25.40;27.70;;;;;;5064704;28;20400;-77
2022/08/03 07:56:06;;;;;;;10.73;6.23;;;25.40;28.00;;;;;;5038523;28;20415;-80
2022/08/03 07:58:34;;;;;;;15.38;8.00;;;25.40;28.00;;;;;;5021848;28;20595;-81
2022/08/03 08:00:59;;;;;;;16.75;8.95;;;25.50;28.00;;;;;;5039042;28;20395;-81
2022/08/03 08:03:25;;;;;;;14.32;6.93;;;25.50;27.40;;;;;;5018392;28;20972;-75
2022/08/03 08:05:52;;;;;;;15.57;5.90;;;25.70;26.90;;;;;;5030566;28;20936;-75
2022/08/03 08:08:18;;;;;;;13.73;5.80;;;25.80;26.00;;;;;;5030996;28;20419;-76
2022/08/03 08:10:44;;;;;;;14.48;5.90;;;25.90;26.20;;;;;;5029848;28;20477;-77
2022/08/03 08:13:10;;;;;;;12.20;5.72;;;25.80;26.00;;;;;;5030054;28;20395;-76
2022/08/03 08:15:35;;;;;;;9.20;5.03;;;25.90;26.10;;;;;;5030611;28;20732;-75
2022/08/03 08:18:02;;;;;;;9.87;5.23;;;26.00;26.10;;;;;;5030569;28;20402;-78
2022/08/03 08:20:30;;;;;;;10.67;5.37;;;26.10;25.90;;;;;;5037739;28;20398;-78
2022/08/03 08:22:57;;;;;;;13.23;4.63;;;26.30;24.80;;;;;;5019622;28;20410;-79
2022/08/03 08:25:22;;;;;;;11.70;5.23;;;26.20;24.50;;;;;;5032886;28;21139;-77
2022/08/03 08:27:49;;;;;;;11.65;5.35;;;26.20;24.60;;;;;;5040877;28;20907;-75
2022/08/03 08:30:17;;;;;;;8.88;4.45;;;26.40;23.60;;;;;;5042396;28;20397;-77
2022/08/03 08:32:43;;;;;;;13.98;4.70;;;26.50;23.60;;;;;;5058585;28;20809;-77
2022/08/03 08:35:10;;;;;;;14.57;4.25;;;26.60;23.00;;;;;;5043777;28;20405;-77
2022/08/03 08:37:36;;;;;;;7.37;4.40;;;26.60;22.60;;;;;;5057737;28;20771;-76
2022/08/03 08:40:03;;;;;;;8.05;4.40;;;26.70;22.30;;;;;;5056596;28;20393;-78
2022/08/03 08:42:30;;;;;;;12.77;4.50;;;26.80;21.90;;;;;;5056992;28;20389;-79
2022/08/03 08:44:56;;;;;;;6.60;4.60;;;26.90;21.50;;;;;;5051342;28;20408;-78
2022/08/03 08:47:29;;;;;;;9.90;4.60;;;27.00;22.00;;;;;;5056685;28;20890;-78
2022/08/03 08:49:57;;;;;;;11.40;3.75;;;27.20;21.00;;;;;;5066395;28;20385;-77
2022/08/03 08:52:28;;;;;;;6.28;3.05;;;27.20;20.40;;;;;;5064939;28;20392;-76
2022/08/03 08:54:58;;;;;;;7.28;3.63;;;27.40;20.00;;;;;;5046584;28;20762;-77
2022/08/03 08:57:30;;;;;;;8.70;3.50;;;27.30;20.00;;;;;;5056227;28;20417;-77
2022/08/03 08:59:56;;;;;;;6.95;3.40;;;27.40;19.50;;;;;;5037282;28;20462;-79
2022/08/03 09:02:23;;;;;;;5.80;3.00;;;27.40;20.00;;;;;;5051311;28;20391;-78
2022/08/03 09:04:49;;;;;;;7.07;4.07;;;27.40;20.00;;;;;;5034196;28;20394;-77
2022/08/03 09:07:16;;;;;;;6.18;3.40;;;27.50;19.90;;;;;;5051247;28;20994;-79
2022/08/03 09:09:42;;;;;;;11.57;3.22;;;27.50;19.10;;;;;;5076880;28;20384;-77
2022/08/03 09:12:08;;;;;;;8.70;3.35;;;27.50;18.90;;;;;;5077828;28;20384;-77
2022/08/03 09:14:33;;;;;;;7.17;3.00;;;27.50;19.50;;;;;;5078196;28;20395;-75
2022/08/03 09:17:01;;;;;;;9.65;3.35;;;27.60;19.20;;;;;;5093411;28;20412;-78
2022/08/03 09:19:30;;;;;;;11.50;3.67;;;27.60;19.30;;;;;;5072386;28;20416;-77
2022/08/03 09:22:17;;;;;;;9.15;3.50;;;27.70;18.50;;;;;;5043519;28;20404;-78
2022/08/03 09:24:57;;;;;;;5.80;3.00;;;27.80;18.30;;;;;;5056646;28;20393;-79
2022/08/03 09:27:23;;;;;;;8.25;3.00;;;27.90;18.20;;;;;;5058614;28;20896;-77
2022/08/03 09:29:51;;;;;;;12.27;3.45;;;28.00;18.50;;;;;;5055464;28;20960;-78
2022/08/03 09:32:22;;;;;;;11.50;3.20;;;28.10;18.30;;;;;;5055242;28;20403;-77
2022/08/03 09:34:49;;;;;;;6.40;3.10;;;28.20;17.80;;;;;;5059332;28;20416;-77
2022/08/03 09:37:16;;;;;;;14.05;3.53;;;28.20;18.10;;;;;;5048205;28;20415;-79
2022/08/03 09:39:44;;;;;;;8.00;3.50;;;28.40;17.40;;;;;;5066675;28;20486;-78
2022/08/03 09:42:16;;;;;;;8.90;3.10;;;28.60;17.90;;;;;;5073065;28;20387;-78
2022/08/03 09:44:44;;;;;;;8.18;3.30;;;28.60;17.20;;;;;;5056292;28;20393;-78
2022/08/03 09:47:12;;;;;;;12.65;2.65;;;28.60;17.10;;;;;;5056721;28;20710;-77
2022/08/03 09:49:42;;;;;;;12.55;3.00;;;28.70;16.10;;;;;;5043203;28;20381;-77
2022/08/03 09:52:17;;;;;;;7.93;2.05;;;28.80;16.00;;;;;;5056570;28;20398;-78
2022/08/03 09:54:44;;;;;;;5.65;2.10;;;28.90;15.10;;;;;;5059908;28;20443;-78
2022/08/03 09:57:23;;;;;;;5.28;2.00;;;29.10;15.20;;;;;;5064031;28;20480;-77
2022/08/03 09:59:50;;;;;;;4.80;2.35;;;29.10;14.70;;;;;;5045305;28;20426;-78
2022/08/03 10:02:24;;;;;;;7.45;2.03;;;29.20;14.90;;;;;;5053488;28;20388;-78
2022/08/03 10:04:51;;;;;;;8.93;2.17;;;29.20;14.30;;;;;;5078391;28;20389;-79
2022/08/03 10:07:19;;;;;;;7.82;2.38;;;29.20;14.70;;;;;;5063571;28;20401;-78
2022/08/03 10:09:59;;;;;;;7.15;2.40;;;29.20;14.70;;;;;;5041668;28;20404;-79
2022/08/03 10:12:25;;;;;;;5.20;2.30;;;29.10;14.80;;;;;;5042349;28;20381;-79
2022/08/03 10:14:51;;;;;;;9.33;3.00;;;29.10;14.50;;;;;;5055080;28;20389;-77
2022/08/03 10:17:18;;;;;;;5.88;2.28;;;29.20;15.30;;;;;;5057886;28;20404;-78
2022/08/03 10:19:44;;;;;;;5.18;2.20;;;29.10;14.60;;;;;;5052381;28;20445;-77
2022/08/03 10:22:13;;;;;;;4.27;2.23;;;29.20;14.50;;;;;;5037782;28;20387;-78
2022/08/03 10:24:46;;;;;;;7.50;2.30;;;29.30;14.30;;;;;;5036144;28;20405;-77
2022/08/03 10:27:13;;;;;;;2.80;2.00;;;29.30;13.80;;;;;;5060030;28;20409;-79
2022/08/03 10:29:45;;;;;;;5.68;2.20;;;29.20;13.90;;;;;;5062024;28;20452;-78
2022/08/03 10:32:32;;;;;;;3.80;2.30;;;29.20;14.30;;;;;;5059636;28;20866;-78
2022/08/03 10:35:18;;;;;;;9.32;2.10;;;29.20;14.10;;;;;;5045630;28;21001;-78
2022/08/03 10:38:00;;;;;;;5.35;1.85;;;29.30;13.50;;;;;;5036881;28;20409;-77
2022/08/03 10:40:30;;;;;;;4.97;2.10;;;29.40;13.40;;;;;;5058289;28;20385;-78
2022/08/03 10:43:02;;;;;;;7.53;2.38;;;29.50;13.40;;;;;;5052401;28;20399;-79
2022/08/03 10:45:29;;;;;;;5.90;2.15;;;29.50;13.50;;;;;;5036051;28;20431;-78
2022/08/03 10:47:56;;;;;;;10.05;2.13;;;29.60;13.40;;;;;;5057070;28;20434;-77
2022/08/03 10:50:24;;;;;;;6.55;2.00;;;29.50;12.90;;;;;;5040005;28;20426;-77
2022/08/03 10:52:56;;;;;;;5.15;2.30;;;29.60;13.30;;;;;;5042784;28;20793;-78
2022/08/03 10:58:14;;;;;;;6.40;2.42;;;29.90;12.60;;;;;;5040149;28;20887;-79
2022/08/03 11:00:49;;;;;;;7.75;3.20;;;30.00;12.40;;;;;;5030536;28;20429;-77
2022/08/03 11:03:15;;;;;;;4.03;2.40;;;30.30;11.70;;;;;;5055922;28;20390;-77
2022/08/03 11:05:47;;;;;;;3.08;2.00;;;30.40;12.30;;;;;;5036148;28;20406;-79
2022/08/03 11:08:31;;;;;;;13.93;2.80;;;30.40;11.60;;;;;;5036120;28;20809;-78
2022/08/03 11:11:02;;;;;;;6.35;3.25;;;30.40;11.60;;;;;;5037146;28;20406;-79
2022/08/03 11:13:30;;;;;;;4.57;2.00;;;30.40;11.80;;;;;;5045463;28;20451;-78
2022/08/03 11:15:58;;;;;;;10.10;2.20;;;30.30;12.10;;;;;;5038841;28;20897;-78
2022/08/03 11:18:24;;;;;;;7.50;2.60;;;30.30;11.10;;;;;;5054272;28;20393;-76
2022/08/03 11:20:57;;;;;;;4.20;2.00;;;30.30;11.10;;;;;;5037162;28;20981;-76
2022/08/03 11:23:46;;;;;;;6.80;1.92;;;30.20;12.30;;;;;;5057163;28;20393;-77
2022/08/03 11:26:15;;;;;;;5.32;2.08;;;30.40;11.30;;;;;;5040488;28;20385;-77
2022/08/03 11:28:44;;;;;;;6.30;2.42;;;30.40;11.50;;;;;;5061131;28;20401;-77
2022/08/03 11:31:21;;;;;;;8.52;1.92;;;30.60;10.90;;;;;;5059612;28;20842;-78
2022/08/03 11:34:07;;;;;;;4.20;1.90;;;30.70;10.70;;;;;;5059622;28;20385;-77
2022/08/03 11:37:10;;;;;;;6.03;1.90;;;30.70;10.50;;;;;;5037982;28;20393;-77
2022/08/03 11:39:42;;;;;;;4.80;2.20;;;30.70;10.20;;;;;;5058643;28;20404;-78
2022/08/03 11:42:23;;;;;;;5.82;1.85;;;30.70;10.30;;;;;;5027608;28;20403;-77
2022/08/03 11:44:59;;;;;;;4.00;2.10;;;30.90;9.70;;;;;;5037682;28;20398;-77
2022/08/03 11:47:26;;;;;;;9.07;2.10;;;31.10;9.70;;;;;;5021170;28;20426;-76
2022/08/03 11:50:00;;;;;;;5.10;1.80;;;31.10;9.00;;;;;;5042797;28;20413;-77
2022/08/03 11:52:32;;;;;;;3.58;1.90;;;31.10;8.70;;;;;;5044342;28;20383;-77
2022/08/03 11:54:58;;;;;;;5.20;1.90;;;31.10;9.00;;;;;;5025136;28;20764;-77
2022/08/03 11:57:34;;;;;;;5.00;1.83;;;31.20;8.90;;;;;;5041184;28;20385;-78
2022/08/03 12:00:00;;;;;;;2.90;1.70;;;31.30;8.60;;;;;;5023320;28;20429;-78
2022/08/03 12:02:26;;;;;;;5.65;2.00;;;31.40;9.20;;;;;;5043819;28;20397;-78
2022/08/03 12:04:57;;;;;;;6.47;1.90;;;31.60;9.00;;;;;;5063233;28;20386;-77
2022/08/03 12:07:26;;;;;;;4.82;1.90;;;31.60;8.60;;;;;;5056572;28;20435;-78
2022/08/03 12:10:09;;;;;;;6.57;1.90;;;31.60;8.20;;;;;;5043809;28;20483;-79
2022/08/03 12:12:35;;;;;;;5.43;1.90;;;31.70;8.40;;;;;;5060429;28;20445;-79
2022/08/03 12:15:01;;;;;;;6.20;1.90;;;31.80;8.30;;;;;;5038397;28;20453;-78
2022/08/03 12:17:37;;;;;;;3.67;2.15;;;31.90;7.90;;;;;;5065348;28;20424;-77
2022/08/03 12:20:05;;;;;;;4.78;2.10;;;32.00;7.80;;;;;;5059687;28;20490;-76
2022/08/03 12:22:38;;;;;;;8.10;2.38;;;32.30;7.70;;;;;;5073417;28;20393;-78
2022/08/03 12:25:05;;;;;;;4.05;1.80;;;32.50;7.50;;;;;;5063805;28;20480;-79
2022/08/03 12:27:31;;;;;;;6.80;1.95;;;32.50;6.30;;;;;;5026807;28;20413;-78
2022/08/03 12:29:59;;;;;;;3.63;1.90;;;32.60;6.00;;;;;;5044898;28;20399;-78
2022/08/03 12:32:26;;;;;;;6.38;1.85;;;32.90;5.80;;;;;;5023766;28;20511;-77
2022/08/03 12:34:52;;;;;;;3.60;1.67;;;33.10;6.50;;;;;;5041330;28;20752;-78
2022/08/03 12:37:21;;;;;;;6.00;1.90;;;33.00;6.00;;;;;;5040911;28;20487;-78
2022/08/03 12:39:55;;;;;;;4.03;1.70;;;32.90;6.70;;;;;;5042295;28;20819;-78
2022/08/03 12:42:21;;;;;;;7.10;2.08;;;32.80;5.50;;;;;;5042171;28;20833;-79
2022/08/03 12:44:48;;;;;;;4.50;1.73;;;32.90;5.70;;;;;;5045622;28;20426;-78
2022/08/03 12:47:14;;;;;;;7.18;1.88;;;32.80;6.30;;;;;;5029744;28;20403;-79
2022/08/03 12:49:45;;;;;;;2.87;1.77;;;32.80;6.40;;;;;;5062857;28;20389;-77
2022/08/03 12:52:11;;;;;;;9.48;2.10;;;32.60;6.00;;;;;;5056588;28;20449;-78
2022/08/03 12:54:37;;;;;;;4.50;1.90;;;32.50;6.40;;;;;;5039284;28;20446;-78
2022/08/03 12:57:11;;;;;;;4.25;2.10;;;32.40;6.20;;;;;;5037802;28;20409;-77
2022/08/03 12:59:42;;;;;;;5.05;1.83;;;32.10;7.30;;;;;;5041317;28;20391;-78
2022/08/03 13:02:19;;;;;;;5.18;2.05;;;32.30;7.10;;;;;;5039422;28;20407;-78
2022/08/03 13:04:46;;;;;;;8.07;2.00;;;32.50;6.30;;;;;;5040816;28;20481;-78